Time;durP1;ratioP1;P1;durP2;ratioP2;P2;SDS_P1;SDS_P2;PMS_P1;PMS_P2;Temp;Humidity;BMP_temperature;BMP_pressure;BME280_temperature;BME280_humidity;BME280_pressure;Samples;Min_cycle;Max_cycle;Signal;HPM_P1;HPM_P2
2023/11/26 00:00:49;;;;;;;14.20;5.67;;;4.20;99.90;;;;;;4859312;29;20486;-72
2023/11/26 00:03:15;;;;;;;19.10;6.77;;;4.10;99.90;;;;;;4845581;29;20484;-73
2023/11/26 00:05:40;;;;;;;15.20;6.73;;;4.10;99.90;;;;;;4847116;29;20450;-75
2023/11/26 00:08:06;;;;;;;14.33;6.90;;;4.00;99.90;;;;;;4861875;29;20217;-74
2023/11/26 00:10:32;;;;;;;16.70;7.27;;;4.10;99.90;;;;;;4852011;29;20275;-73
2023/11/26 00:12:57;;;;;;;12.77;6.47;;;4.10;99.90;;;;;;4843406;29;20201;-73
2023/11/26 00:15:23;;;;;;;16.73;6.50;;;4.00;99.90;;;;;;4844364;29;20221;-74
2023/11/26 00:17:49;;;;;;;12.03;6.63;;;4.10;99.90;;;;;;4839903;29;20230;-75
2023/11/26 00:20:15;;;;;;;13.90;7.47;;;3.90;99.90;;;;;;4851188;29;20216;-75
2023/11/26 00:22:41;;;;;;;16.43;8.03;;;3.90;99.90;;;;;;4847853;29;20492;-74
2023/11/26 00:25:07;;;;;;;15.80;8.13;;;3.90;99.90;;;;;;4869923;29;20275;-76
2023/11/26 00:27:33;;;;;;;16.07;8.47;;;4.00;99.90;;;;;;4849747;29;20762;-75
2023/11/26 00:29:59;;;;;;;18.50;8.00;;;4.00;99.90;;;;;;4844965;29;20431;-75
2023/11/26 00:32:25;;;;;;;15.70;6.73;;;4.00;99.90;;;;;;4863985;29;20534;-75
2023/11/26 00:34:51;;;;;;;21.50;9.13;;;4.00;99.90;;;;;;4842132;29;20533;-73
2023/11/26 00:37:17;;;;;;;16.60;7.87;;;4.10;99.90;;;;;;4853826;29;20409;-74
2023/11/26 00:39:43;;;;;;;29.77;10.00;;;4.00;99.90;;;;;;4839161;29;20438;-74
2023/11/26 00:42:08;;;;;;;20.50;9.33;;;4.00;99.90;;;;;;4844442;29;20277;-75
2023/11/26 00:44:35;;;;;;;19.20;9.63;;;4.00;99.90;;;;;;4843039;29;20182;-73
2023/11/26 00:47:00;;;;;;;15.67;8.30;;;4.10;99.90;;;;;;4844728;29;20191;-73
2023/11/26 00:49:27;;;;;;;20.80;8.80;;;4.10;99.90;;;;;;4852522;29;20426;-74
2023/11/26 00:51:53;;;;;;;16.43;8.03;;;4.00;99.90;;;;;;4858307;29;20457;-73
2023/11/26 00:54:19;;;;;;;24.40;10.90;;;4.00;99.90;;;;;;4851687;29;20220;-73
2023/11/26 00:56:45;;;;;;;18.47;9.17;;;3.90;99.90;;;;;;4844238;29;20463;-74
2023/11/26 00:59:11;;;;;;;14.10;8.30;;;3.90;99.90;;;;;;4866505;29;20229;-75
2023/11/26 01:01:37;;;;;;;17.50;8.93;;;4.00;99.90;;;;;;4832962;29;20845;-74
2023/11/26 01:04:03;;;;;;;18.20;7.40;;;3.90;99.90;;;;;;4841086;29;20429;-75
2023/11/26 01:06:29;;;;;;;11.57;6.10;;;4.00;99.90;;;;;;4848368;29;20239;-73
2023/11/26 01:08:54;;;;;;;14.50;6.90;;;4.10;99.90;;;;;;4842102;29;20411;-74
2023/11/26 01:11:20;;;;;;;11.30;6.87;;;4.10;99.90;;;;;;4842552;29;20200;-72
2023/11/26 01:13:46;;;;;;;10.47;5.43;;;4.00;99.90;;;;;;4853633;29;20733;-73
2023/11/26 01:16:12;;;;;;;12.13;5.87;;;4.10;99.90;;;;;;4846155;29;20223;-71
2023/11/26 01:18:39;;;;;;;8.57;4.87;;;4.10;99.90;;;;;;4835822;29;20221;-73
2023/11/26 01:21:06;;;;;;;14.37;9.97;;;4.10;99.90;;;;;;4837924;29;20402;-73
2023/11/26 01:23:32;;;;;;;12.90;6.90;;;4.10;99.90;;;;;;4838631;29;20460;-72
2023/11/26 01:25:58;;;;;;;15.00;7.27;;;4.10;99.90;;;;;;4850323;29;20441;-72
2023/11/26 01:28:25;;;;;;;13.23;7.17;;;4.10;99.90;;;;;;4838485;29;20434;-73
2023/11/26 01:30:50;;;;;;;6.83;4.77;;;4.10;99.90;;;;;;4846546;29;20509;-72
2023/11/26 01:33:18;;;;;;;13.27;7.17;;;4.00;99.90;;;;;;4840041;29;20229;-73
2023/11/26 01:35:44;;;;;;;17.00;9.37;;;4.10;99.90;;;;;;4846088;29;20492;-75
2023/11/26 01:38:09;;;;;;;23.90;9.80;;;4.10;99.90;;;;;;4834947;29;20590;-72
2023/11/26 01:40:37;;;;;;;28.57;11.30;;;3.90;99.90;;;;;;4836126;29;20206;-73
2023/11/26 01:43:02;;;;;;;21.20;10.40;;;3.90;99.90;;;;;;4855067;29;20893;-73
2023/11/26 01:45:29;;;;;;;31.57;11.00;;;4.00;99.90;;;;;;4836447;29;20512;-72
2023/11/26 01:47:55;;;;;;;25.83;11.00;;;3.90;99.90;;;;;;4840152;29;20645;-73
2023/11/26 01:50:24;;;;;;;19.53;10.87;;;4.00;99.90;;;;;;4837784;29;20431;-73
2023/11/26 01:52:50;;;;;;;22.50;12.03;;;3.80;99.90;;;;;;4840388;29;20425;-72
2023/11/26 01:55:18;;;;;;;20.60;9.50;;;3.90;99.90;;;;;;4842875;29;20811;-72
2023/11/26 01:57:44;;;;;;;23.07;10.27;;;3.90;99.90;;;;;;4834377;29;20784;-72
2023/11/26 02:00:13;;;;;;;19.50;8.57;;;3.80;99.90;;;;;;4861803;29;20471;-73
2023/11/26 02:02:40;;;;;;;16.00;9.40;;;3.90;99.90;;;;;;4861564;29;20414;-73
2023/11/26 02:05:15;;;;;;;14.03;8.70;;;3.80;99.90;;;;;;4831238;29;20450;-74
2023/11/26 02:07:42;;;;;;;20.30;8.07;;;3.80;99.90;;;;;;4850759;29;20510;-74
2023/11/26 02:10:08;;;;;;;29.10;11.53;;;3.80;99.90;;;;;;4835072;29;20455;-74
2023/11/26 02:12:34;;;;;;;22.40;10.17;;;3.80;99.90;;;;;;4847155;29;20426;-73
2023/11/26 02:15:02;;;;;;;16.87;8.70;;;3.70;99.90;;;;;;4848074;29;20496;-71
2023/11/26 02:17:28;;;;;;;14.93;7.00;;;3.80;99.90;;;;;;4851610;29;20459;-73
2023/11/26 02:19:56;;;;;;;14.07;8.77;;;3.90;99.90;;;;;;4847634;29;20415;-73
2023/11/26 02:22:22;;;;;;;12.80;7.77;;;3.90;99.90;;;;;;4855242;29;20237;-71
2023/11/26 02:24:48;;;;;;;22.03;9.60;;;3.80;99.90;;;;;;4841225;29;20483;-73
2023/11/26 02:27:14;;;;;;;23.67;9.40;;;3.80;99.90;;;;;;4857937;29;20540;-72
2023/11/26 02:29:40;;;;;;;18.27;8.87;;;3.80;99.90;;;;;;4843464;29;20438;-71
2023/11/26 02:32:07;;;;;;;16.50;8.10;;;3.80;99.90;;;;;;4854959;29;20498;-71
2023/11/26 02:34:34;;;;;;;20.63;8.10;;;3.80;99.90;;;;;;4846155;29;20419;-71
2023/11/26 02:37:00;;;;;;;10.53;5.97;;;3.60;99.90;;;;;;4862895;29;20442;-72
2023/11/26 02:39:28;;;;;;;10.30;5.00;;;3.50;99.90;;;;;;4836789;29;20463;-71
2023/11/26 02:41:56;;;;;;;10.50;6.47;;;3.50;99.90;;;;;;4839149;29;20434;-72
2023/11/26 02:44:21;;;;;;;16.63;8.73;;;3.70;99.90;;;;;;4855706;29;20430;-73
2023/11/26 02:46:47;;;;;;;26.50;9.67;;;3.50;99.90;;;;;;4848030;29;20562;-72
2023/11/26 02:49:13;;;;;;;26.40;9.93;;;3.70;99.90;;;;;;4864758;29;20186;-72
2023/11/26 02:51:39;;;;;;;24.90;10.60;;;3.60;99.90;;;;;;4853258;29;20744;-73
2023/11/26 02:54:05;;;;;;;22.27;9.77;;;3.70;99.90;;;;;;4850773;29;20467;-73
2023/11/26 02:56:31;;;;;;;18.97;10.10;;;3.60;99.90;;;;;;4859689;29;20643;-72
2023/11/26 02:58:56;;;;;;;23.30;9.50;;;3.70;99.90;;;;;;4842974;29;20467;-72
2023/11/26 03:01:25;;;;;;;31.23;9.97;;;3.60;99.90;;;;;;4833025;29;20232;-71
2023/11/26 03:03:51;;;;;;;34.90;12.70;;;3.60;99.90;;;;;;4846879;29;20403;-71
2023/11/26 03:06:17;;;;;;;17.00;9.97;;;3.60;99.90;;;;;;4863976;29;20459;-71
2023/11/26 03:08:43;;;;;;;24.13;10.03;;;3.70;99.90;;;;;;4861558;29;20230;-70
2023/11/26 03:13:58;;;;;;;34.70;11.67;;;3.60;99.90;;;;;;4844034;29;20696;-71
2023/11/26 03:16:26;;;;;;;41.33;13.80;;;3.70;99.90;;;;;;4840407;29;20903;-72
2023/11/26 03:18:52;;;;;;;30.87;12.57;;;3.70;99.90;;;;;;4841371;29;20455;-71
2023/11/26 03:21:18;;;;;;;24.83;12.97;;;3.60;99.90;;;;;;4860492;29;20866;-71
2023/11/26 03:23:46;;;;;;;22.57;10.23;;;3.40;99.90;;;;;;4865379;29;20430;-71
2023/11/26 03:26:12;;;;;;;24.63;9.90;;;3.40;99.90;;;;;;4843585;29;20704;-72
2023/11/26 03:28:42;;;;;;;17.37;9.37;;;3.40;99.90;;;;;;4847412;29;20481;-72
2023/11/26 03:31:08;;;;;;;20.37;9.13;;;3.30;99.90;;;;;;4835310;29;20442;-70
2023/11/26 03:33:35;;;;;;;24.30;11.00;;;3.20;99.90;;;;;;4835146;29;20431;-71
2023/11/26 03:36:01;;;;;;;27.17;11.00;;;3.30;99.90;;;;;;4858615;29;20506;-71
2023/11/26 03:38:28;;;;;;;27.70;12.10;;;3.10;99.90;;;;;;4835477;29;20217;-73
2023/11/26 03:40:54;;;;;;;24.20;10.67;;;3.10;99.90;;;;;;4833921;29;20835;-72
2023/11/26 03:43:20;;;;;;;27.40;10.97;;;3.10;99.90;;;;;;4839082;29;20460;-71
2023/11/26 03:45:45;;;;;;;20.07;8.60;;;3.00;99.90;;;;;;4833588;29;20450;-71
2023/11/26 03:48:12;;;;;;;17.60;7.20;;;3.00;99.90;;;;;;4841592;29;20435;-72
2023/11/26 03:50:38;;;;;;;14.27;7.60;;;3.00;99.90;;;;;;4841459;29;20850;-71
2023/11/26 03:53:04;;;;;;;12.57;7.00;;;2.90;99.90;;;;;;4840825;29;20200;-74
2023/11/26 03:55:30;;;;;;;12.13;7.80;;;2.90;99.90;;;;;;4832125;29;20225;-71
2023/11/26 03:57:56;;;;;;;15.13;7.70;;;2.80;99.90;;;;;;4843796;29;20225;-71
2023/11/26 04:00:21;;;;;;;13.27;6.10;;;2.70;99.90;;;;;;4847543;29;20922;-70
2023/11/26 04:02:48;;;;;;;8.07;5.80;;;2.70;99.90;;;;;;4844730;29;20537;-69
2023/11/26 04:05:15;;;;;;;11.50;6.37;;;2.70;99.90;;;;;;4840127;29;20209;-73
2023/11/26 04:07:42;;;;;;;15.03;7.87;;;2.80;99.90;;;;;;4824612;29;20442;-70
2023/11/26 04:10:09;;;;;;;19.67;8.70;;;2.80;99.90;;;;;;4858096;29;20510;-71
2023/11/26 04:12:37;;;;;;;10.43;7.40;;;2.80;99.90;;;;;;4845477;29;20423;-71
2023/11/26 04:15:06;;;;;;;11.90;6.67;;;2.70;99.90;;;;;;4837819;29;20458;-71
2023/11/26 04:17:32;;;;;;;12.90;8.43;;;2.60;99.90;;;;;;4831581;29;20467;-72
2023/11/26 04:19:59;;;;;;;14.80;8.40;;;2.70;99.90;;;;;;4840341;29;20431;-70
2023/11/26 04:22:26;;;;;;;16.00;9.97;;;2.50;99.90;;;;;;4853071;29;20512;-70
2023/11/26 04:24:52;;;;;;;15.37;10.17;;;2.50;99.90;;;;;;4839374;29;20434;-72
2023/11/26 04:27:19;;;;;;;15.20;9.37;;;2.60;99.90;;;;;;4843138;29;20436;-71
2023/11/26 04:29:48;;;;;;;15.37;8.60;;;2.60;99.90;;;;;;4838669;29;20441;-69
2023/11/26 04:32:14;;;;;;;21.23;10.47;;;2.70;99.90;;;;;;4839977;29;20434;-71
2023/11/26 04:34:43;;;;;;;19.93;10.60;;;2.70;99.90;;;;;;4839475;29;20477;-71
2023/11/26 04:37:09;;;;;;;17.70;9.40;;;2.80;99.90;;;;;;4848540;29;20437;-70
2023/11/26 04:39:35;;;;;;;16.60;10.20;;;2.80;99.90;;;;;;4853684;29;20533;-71
2023/11/26 04:42:03;;;;;;;20.70;11.50;;;2.80;99.90;;;;;;4832040;29;20431;-71
2023/11/26 04:44:28;;;;;;;17.83;10.30;;;2.80;99.90;;;;;;4845068;29;20446;-71
2023/11/26 04:46:54;;;;;;;22.83;10.60;;;2.80;99.90;;;;;;4843772;29;20430;-70
2023/11/26 04:49:20;;;;;;;21.87;12.80;;;2.80;99.90;;;;;;4840543;29;20261;-70
2023/11/26 04:51:46;;;;;;;32.63;15.73;;;2.90;99.90;;;;;;4842109;29;20197;-70
2023/11/26 04:54:12;;;;;;;18.10;10.67;;;2.90;99.90;;;;;;4862013;29;20197;-71
2023/11/26 04:56:39;;;;;;;24.67;11.60;;;2.90;99.90;;;;;;4847981;29;20895;-71
2023/11/26 04:59:04;;;;;;;24.67;13.03;;;2.90;99.90;;;;;;4828434;29;21052;-70
2023/11/26 05:01:35;;;;;;;35.07;15.63;;;3.00;99.90;;;;;;4837694;29;20534;-69
2023/11/26 05:04:01;;;;;;;28.93;14.60;;;3.10;99.90;;;;;;4826812;29;20194;-70
2023/11/26 05:06:27;;;;;;;26.67;15.90;;;3.10;99.90;;;;;;4829795;29;20442;-70
2023/11/26 05:08:53;;;;;;;36.23;17.20;;;3.20;99.90;;;;;;4855847;29;20511;-71
2023/11/26 05:11:18;;;;;;;30.80;15.43;;;3.00;99.90;;;;;;4828977;29;20194;-71
2023/11/26 05:13:45;;;;;;;38.67;17.33;;;3.10;99.90;;;;;;4832376;29;20214;-70
2023/11/26 05:16:11;;;;;;;47.93;18.93;;;3.20;99.90;;;;;;4827911;29;20337;-70
2023/11/26 05:18:37;;;;;;;75.33;26.57;;;3.20;99.90;;;;;;4842187;29;20481;-69
2023/11/26 05:21:02;;;;;;;59.47;23.00;;;3.30;99.90;;;;;;4841366;29;20238;-70
2023/11/26 05:23:28;;;;;;;50.50;18.67;;;3.40;99.90;;;;;;4844561;29;20490;-70
2023/11/26 05:25:54;;;;;;;38.27;17.30;;;3.20;99.90;;;;;;4843976;29;20245;-70
2023/11/26 05:28:20;;;;;;;64.47;20.30;;;3.40;99.90;;;;;;4835156;29;20195;-70
2023/11/26 05:30:45;;;;;;;44.67;16.97;;;3.30;99.90;;;;;;4825987;29;20257;-72
2023/11/26 05:33:11;;;;;;;45.30;16.70;;;3.30;99.90;;;;;;4844651;29;20193;-71
2023/11/26 05:35:36;;;;;;;55.20;20.50;;;3.30;99.90;;;;;;4827250;29;20237;-70
2023/11/26 05:38:03;;;;;;;55.87;20.50;;;3.40;99.90;;;;;;4829107;29;20228;-70
2023/11/26 05:40:29;;;;;;;46.37;17.57;;;3.50;99.90;;;;;;4837657;29;20578;-70
2023/11/26 05:42:56;;;;;;;60.87;22.33;;;3.50;99.90;;;;;;4850805;29;20445;-70
2023/11/26 05:45:21;;;;;;;36.67;15.20;;;3.30;99.90;;;;;;4844338;29;20324;-71
2023/11/26 05:47:47;;;;;;;48.20;16.37;;;3.30;99.90;;;;;;4840307;29;20410;-71
2023/11/26 05:50:15;;;;;;;49.37;17.83;;;3.30;99.90;;;;;;4836390;29;20423;-72
2023/11/26 05:52:41;;;;;;;43.47;17.30;;;3.40;99.90;;;;;;4846608;29;20309;-71
2023/11/26 05:55:07;;;;;;;42.40;14.97;;;3.40;99.90;;;;;;4864354;29;20491;-70
2023/11/26 05:57:33;;;;;;;46.93;17.97;;;3.40;99.90;;;;;;4843888;29;20534;-71
2023/11/26 05:59:59;;;;;;;46.83;19.90;;;3.50;99.90;;;;;;4844177;29;20514;-72
2023/11/26 06:02:25;;;;;;;51.43;18.00;;;3.70;99.90;;;;;;4809377;29;1055370;-69
2023/11/26 06:04:51;;;;;;;56.03;21.00;;;3.50;99.90;;;;;;4866247;29;20308;-70
2023/11/26 06:07:17;;;;;;;48.50;18.30;;;3.70;99.90;;;;;;4837606;29;20458;-71
2023/11/26 06:09:43;;;;;;;55.40;22.97;;;3.60;99.90;;;;;;4837273;29;20805;-69
2023/11/26 06:12:09;;;;;;;44.73;16.23;;;3.70;99.90;;;;;;4853241;29;20451;-70
2023/11/26 06:14:35;;;;;;;45.83;17.43;;;3.60;99.90;;;;;;4846567;29;20526;-70
2023/11/26 06:17:01;;;;;;;43.23;14.87;;;3.60;99.90;;;;;;4848890;29;20531;-70
2023/11/26 06:19:27;;;;;;;49.20;18.97;;;3.70;99.90;;;;;;4832325;29;20505;-70
2023/11/26 06:21:53;;;;;;;105.73;29.60;;;3.80;99.90;;;;;;4834648;29;20430;-73
2023/11/26 06:24:18;;;;;;;88.33;28.27;;;3.70;99.90;;;;;;4839806;29;20407;-71
2023/11/26 06:26:44;;;;;;;90.67;27.13;;;3.60;99.90;;;;;;4843439;29;20212;-71
2023/11/26 06:29:11;;;;;;;71.17;23.20;;;3.80;99.90;;;;;;4853289;29;20200;-71
2023/11/26 06:31:37;;;;;;;64.50;25.50;;;3.80;99.90;;;;;;4834121;29;20198;-72
2023/11/26 06:34:02;;;;;;;86.07;28.10;;;3.80;99.90;;;;;;4845521;29;20506;-69
2023/11/26 06:36:28;;;;;;;146.97;35.90;;;3.90;99.90;;;;;;4841872;29;20218;-70
2023/11/26 06:38:56;;;;;;;80.57;25.70;;;3.80;99.90;;;;;;4829948;29;20245;-72
2023/11/26 06:41:28;;;;;;;67.23;22.83;;;3.90;99.90;;;;;;4847034;29;20185;-73
2023/11/26 06:43:58;;;;;;;86.07;25.90;;;3.90;99.90;;;;;;4829000;29;20434;-73
2023/11/26 06:46:24;;;;;;;64.43;24.07;;;3.80;99.90;;;;;;4840859;29;20511;-72
2023/11/26 06:48:51;;;;;;;60.53;20.13;;;3.70;99.90;;;;;;4850856;29;20426;-73
2023/11/26 06:51:20;;;;;;;72.50;23.40;;;3.70;99.90;;;;;;4841033;29;20430;-70
2023/11/26 06:53:47;;;;;;;54.33;20.53;;;3.60;99.90;;;;;;4833111;29;20439;-71
2023/11/26 06:56:13;;;;;;;50.77;18.30;;;3.60;99.90;;;;;;4842378;29;20464;-70
2023/11/26 06:58:41;;;;;;;51.67;21.87;;;3.50;99.90;;;;;;4832899;29;20499;-73
2023/11/26 07:01:07;;;;;;;55.23;18.17;;;3.50;99.90;;;;;;4832191;29;20467;-70
2023/11/26 07:03:34;;;;;;;70.40;26.57;;;3.60;99.90;;;;;;4843206;29;20443;-71
2023/11/26 07:06:10;;;;;;;83.90;28.10;;;3.70;99.90;;;;;;4839775;29;20446;-69
2023/11/26 07:08:38;;;;;;;91.13;26.23;;;3.70;99.90;;;;;;4848167;29;20517;-70
2023/11/26 07:11:05;;;;;;;62.93;23.30;;;3.90;99.90;;;;;;4836423;29;20481;-73
2023/11/26 07:13:31;;;;;;;73.90;24.03;;;3.90;99.90;;;;;;4837573;29;20427;-72
2023/11/26 07:15:57;;;;;;;65.60;21.40;;;3.90;99.90;;;;;;4837302;29;20451;-70
2023/11/26 07:18:23;;;;;;;70.67;25.83;;;4.00;99.90;;;;;;4848783;29;20454;-71
2023/11/26 07:20:49;;;;;;;95.53;28.87;;;4.00;99.90;;;;;;4832942;29;20427;-69
2023/11/26 07:23:15;;;;;;;83.63;24.27;;;4.00;99.90;;;;;;4842548;29;20418;-71
2023/11/26 07:25:40;;;;;;;75.10;23.73;;;3.90;99.90;;;;;;4850882;29;20221;-70
2023/11/26 07:28:11;;;;;;;65.87;22.90;;;4.00;99.90;;;;;;4832368;29;20202;-71
2023/11/26 07:30:42;;;;;;;45.33;17.57;;;4.00;99.90;;;;;;4857022;29;20205;-72
2023/11/26 07:33:08;;;;;;;49.03;20.63;;;4.20;99.90;;;;;;4832094;29;20459;-71
2023/11/26 07:35:33;;;;;;;44.20;15.40;;;4.20;99.90;;;;;;4832303;29;20515;-71
2023/11/26 07:38:03;;;;;;;37.37;14.57;;;4.20;99.90;;;;;;4841188;29;20455;-70
2023/11/26 07:40:30;;;;;;;36.20;14.77;;;4.20;99.90;;;;;;4846781;29;20189;-72
2023/11/26 07:42:56;;;;;;;75.93;23.80;;;4.20;99.90;;;;;;4847790;29;20422;-70
2023/11/26 07:45:21;;;;;;;86.73;28.33;;;4.30;99.90;;;;;;4840324;29;20449;-71
2023/11/26 07:47:47;;;;;;;56.63;20.50;;;4.30;99.90;;;;;;4844183;29;20189;-69
2023/11/26 07:50:13;;;;;;;62.70;21.57;;;4.30;99.90;;;;;;4843679;29;20186;-71
2023/11/26 07:52:39;;;;;;;98.07;29.30;;;4.30;99.90;;;;;;4836985;29;20185;-72
2023/11/26 07:55:06;;;;;;;79.77;24.93;;;4.30;99.90;;;;;;4837271;29;20478;-71
2023/11/26 07:57:32;;;;;;;160.63;37.30;;;4.20;99.90;;;;;;4832154;29;20442;-73
2023/11/26 07:59:59;;;;;;;102.97;26.20;;;4.30;99.90;;;;;;4828530;29;20466;-71
2023/11/26 08:02:35;;;;;;;90.57;28.60;;;4.30;99.90;;;;;;4853055;29;20475;-72
2023/11/26 08:05:01;;;;;;;64.37;19.90;;;4.40;99.90;;;;;;4841660;29;20442;-73
2023/11/26 08:07:29;;;;;;;103.20;29.33;;;4.40;99.90;;;;;;4837387;29;20492;-71
2023/11/26 08:09:55;;;;;;;100.37;25.03;;;4.30;99.90;;;;;;4832491;29;20193;-70
2023/11/26 08:12:23;;;;;;;89.83;25.07;;;4.40;99.90;;;;;;4831782;29;20440;-72
2023/11/26 08:14:51;;;;;;;80.87;23.87;;;4.60;99.90;;;;;;4827485;29;20446;-70
2023/11/26 08:17:18;;;;;;;164.60;33.23;;;4.50;99.90;;;;;;4837578;29;20430;-72
2023/11/26 08:19:45;;;;;;;78.43;23.03;;;4.60;99.90;;;;;;4842078;29;20474;-71
2023/11/26 08:22:13;;;;;;;87.57;25.93;;;4.70;99.90;;;;;;4831896;29;20447;-73
2023/11/26 08:24:46;;;;;;;60.63;19.93;;;4.80;99.90;;;;;;4840676;29;20897;-71
2023/11/26 08:27:14;;;;;;;75.93;22.60;;;4.80;99.90;;;;;;4831273;29;20423;-71
2023/11/26 08:29:43;;;;;;;71.37;21.93;;;4.70;99.90;;;;;;4842831;29;20482;-71
2023/11/26 08:32:09;;;;;;;68.97;21.67;;;4.90;99.90;;;;;;4840201;29;20426;-73
2023/11/26 08:34:38;;;;;;;113.10;26.70;;;4.90;99.90;;;;;;4844464;29;20443;-71
2023/11/26 08:37:05;;;;;;;66.97;20.53;;;5.00;99.90;;;;;;4857421;29;20474;-71
2023/11/26 08:39:34;;;;;;;53.77;19.30;;;5.10;99.90;;;;;;4837451;29;20483;-74
2023/11/26 08:42:02;;;;;;;47.03;17.10;;;5.10;99.90;;;;;;4830111;29;21714;-71
2023/11/26 08:44:32;;;;;;;88.83;22.50;;;5.00;99.90;;;;;;4834837;29;20435;-73
2023/11/26 08:46:59;;;;;;;48.67;16.40;;;5.20;99.90;;;;;;4837811;29;20465;-72
2023/11/26 08:49:26;;;;;;;46.30;14.80;;;5.30;99.90;;;;;;4839123;29;20433;-70
2023/11/26 08:51:54;;;;;;;34.53;12.60;;;5.30;99.90;;;;;;4839906;29;20406;-71
2023/11/26 08:54:23;;;;;;;27.83;10.47;;;5.40;99.90;;;;;;4841051;29;20426;-72
2023/11/26 08:56:50;;;;;;;22.37;10.50;;;5.60;99.90;;;;;;4841090;29;20457;-71
2023/11/26 08:59:16;;;;;;;57.30;17.77;;;5.40;99.90;;;;;;4831283;29;20497;-72
2023/11/26 09:01:42;;;;;;;97.80;22.40;;;5.60;99.90;;;;;;4831266;29;20471;-72
2023/11/26 09:04:08;;;;;;;85.73;21.37;;;5.50;99.90;;;;;;4839884;29;20429;-72
2023/11/26 09:06:34;;;;;;;51.73;18.00;;;5.70;99.90;;;;;;4840946;29;20469;-73
2023/11/26 09:09:00;;;;;;;101.80;23.43;;;5.60;99.90;;;;;;4864527;29;20658;-73
2023/11/26 09:11:26;;;;;;;58.43;19.73;;;5.70;99.90;;;;;;4848983;29;20260;-70
2023/11/26 09:13:52;;;;;;;48.60;17.13;;;5.70;99.90;;;;;;4834998;29;20280;-73
2023/11/26 09:16:19;;;;;;;44.17;16.57;;;5.90;99.90;;;;;;4843888;29;20485;-70
2023/11/26 09:18:45;;;;;;;50.67;19.90;;;5.80;99.90;;;;;;4840040;29;20458;-72
2023/11/26 09:21:12;;;;;;;31.73;15.93;;;6.00;99.90;;;;;;4853060;29;20418;-71
2023/11/26 09:23:42;;;;;;;32.40;16.57;;;6.00;99.90;;;;;;4842309;29;20864;-72
2023/11/26 09:26:10;;;;;;;27.60;14.10;;;6.20;99.90;;;;;;4832353;29;20801;-74
2023/11/26 09:28:36;;;;;;;31.57;15.00;;;6.20;99.90;;;;;;4860366;29;20429;-74
2023/11/26 09:31:03;;;;;;;29.17;16.27;;;6.40;99.90;;;;;;4833558;29;20747;-70
2023/11/26 09:33:29;;;;;;;30.90;16.90;;;6.50;99.90;;;;;;4830710;29;20205;-72
2023/11/26 09:35:55;;;;;;;34.83;17.10;;;6.50;99.90;;;;;;4845536;29;20451;-73
2023/11/26 09:38:20;;;;;;;36.30;20.00;;;6.50;99.90;;;;;;4843183;29;20205;-71
2023/11/26 09:40:47;;;;;;;37.60;18.00;;;6.40;99.90;;;;;;4850971;29;20183;-73
2023/11/26 09:43:14;;;;;;;32.13;19.47;;;6.50;99.90;;;;;;4861043;29;20193;-75
2023/11/26 09:45:40;;;;;;;29.53;16.40;;;6.70;99.90;;;;;;4854741;29;20446;-71
2023/11/26 09:48:09;;;;;;;31.73;16.60;;;6.80;99.90;;;;;;4846137;29;20440;-72
2023/11/26 09:50:35;;;;;;;26.10;16.83;;;6.80;99.90;;;;;;4839692;29;20196;-72
2023/11/26 09:53:01;;;;;;;22.00;15.50;;;6.80;99.90;;;;;;4850061;29;20495;-71
2023/11/26 09:55:32;;;;;;;25.97;17.63;;;6.90;99.90;;;;;;4826627;29;20218;-71
2023/11/26 09:57:58;;;;;;;26.20;16.43;;;6.90;99.90;;;;;;4830477;29;20466;-73
2023/11/26 10:00:24;;;;;;;24.00;16.23;;;6.90;99.90;;;;;;4840873;29;20438;-72
2023/11/26 10:03:00;;;;;;;44.60;18.23;;;7.00;99.90;;;;;;4866865;29;20267;-72
2023/11/26 10:05:26;;;;;;;23.20;15.43;;;6.90;99.90;;;;;;4837199;29;20229;-73
2023/11/26 10:07:54;;;;;;;31.70;16.60;;;6.80;99.90;;;;;;4832552;29;20665;-74
2023/11/26 10:10:23;;;;;;;28.97;17.63;;;6.80;99.90;;;;;;4832237;29;20194;-72
2023/11/26 10:12:59;;;;;;;23.80;17.90;;;6.80;99.90;;;;;;4847089;29;20462;-72
2023/11/26 10:15:28;;;;;;;26.10;15.37;;;6.80;99.90;;;;;;4841190;29;20632;-73
2023/11/26 10:18:10;;;;;;;29.80;14.97;;;6.90;99.90;;;;;;4840595;29;20467;-71
2023/11/26 10:20:45;;;;;;;22.73;13.43;;;7.10;99.90;;;;;;4863837;29;20426;-72
2023/11/26 10:23:14;;;;;;;24.60;13.83;;;7.10;99.90;;;;;;4839570;29;20445;-74
2023/11/26 10:25:46;;;;;;;19.30;13.90;;;7.20;99.90;;;;;;4868617;29;20462;-73
2023/11/26 10:28:16;;;;;;;19.23;13.30;;;7.20;99.90;;;;;;4841839;29;20445;-72
2023/11/26 10:30:42;;;;;;;30.10;14.87;;;7.30;99.90;;;;;;4811158;29;20531;-73
2023/11/26 10:33:09;;;;;;;27.73;14.63;;;7.20;99.90;;;;;;4834526;29;20794;-74
2023/11/26 10:35:51;;;;;;;25.27;14.97;;;7.20;99.90;;;;;;4835757;29;20454;-72
2023/11/26 10:38:18;;;;;;;19.70;13.30;;;7.30;99.90;;;;;;4834301;29;20725;-73
2023/11/26 10:40:44;;;;;;;17.07;13.03;;;7.40;99.90;;;;;;4835614;29;20464;-72
2023/11/26 10:43:10;;;;;;;20.90;13.80;;;7.40;99.90;;;;;;4844227;29;20427;-72
2023/11/26 10:45:38;;;;;;;24.90;16.20;;;7.40;99.90;;;;;;4839257;29;20490;-73
2023/11/26 10:48:13;;;;;;;21.17;15.17;;;7.50;99.90;;;;;;4836214;29;20429;-72
2023/11/26 10:51:07;;;;;;;20.40;13.77;;;7.40;99.90;;;;;;4852866;29;20477;-73
2023/11/26 10:53:54;;;;;;;16.73;13.07;;;7.50;99.90;;;;;;4854326;29;20434;-73
2023/11/26 10:56:26;;;;;;;19.40;11.67;;;7.50;99.90;;;;;;4852069;29;20541;-72
2023/11/26 10:58:58;;;;;;;20.27;12.63;;;7.50;99.90;;;;;;4821833;29;20927;-73
2023/11/26 11:01:24;;;;;;;18.33;12.40;;;7.60;99.90;;;;;;4817003;29;20473;-74
2023/11/26 11:03:52;;;;;;;24.80;14.67;;;7.60;99.90;;;;;;4821091;29;20696;-75
2023/11/26 11:06:19;;;;;;;17.33;14.23;;;7.70;99.90;;;;;;4818615;29;20446;-73
2023/11/26 11:08:46;;;;;;;16.70;11.43;;;7.80;99.90;;;;;;4819819;29;20431;-71
2023/11/26 11:11:39;;;;;;;18.17;12.40;;;7.90;99.90;;;;;;4833351;29;20500;-76
2023/11/26 11:14:07;;;;;;;21.03;11.67;;;7.80;99.90;;;;;;4823858;29;20526;-73
2023/11/26 11:16:32;;;;;;;14.93;11.60;;;7.80;99.90;;;;;;4817434;29;20577;-74
2023/11/26 11:18:58;;;;;;;21.07;13.80;;;7.80;99.90;;;;;;4818746;29;20480;-72
2023/11/26 11:21:24;;;;;;;14.70;10.83;;;7.80;99.90;;;;;;4837898;29;20669;-71
2023/11/26 11:23:52;;;;;;;17.33;12.33;;;7.90;99.90;;;;;;4803271;29;20204;-72
2023/11/26 11:26:20;;;;;;;14.30;10.93;;;7.80;99.90;;;;;;4834740;29;20773;-72
2023/11/26 11:28:51;;;;;;;17.30;10.97;;;7.70;99.90;;;;;;4837884;29;20457;-72
2023/11/26 11:31:18;;;;;;;17.93;10.97;;;7.80;99.90;;;;;;4832186;29;20435;-73
2023/11/26 11:34:04;;;;;;;14.97;11.17;;;7.80;99.90;;;;;;4851551;29;20414;-71
2023/11/26 11:37:03;;;;;;;13.13;10.20;;;7.70;99.90;;;;;;4837462;29;20473;-73
2023/11/26 11:39:50;;;;;;;12.87;10.40;;;7.70;99.90;;;;;;4794219;30;20500;-73
2023/11/26 11:42:21;;;;;;;14.23;11.30;;;7.60;99.90;;;;;;4783054;30;20429;-73
2023/11/26 11:44:46;;;;;;;16.33;11.47;;;7.50;99.90;;;;;;4799382;29;20456;-72
2023/11/26 11:47:50;;;;;;;13.57;11.20;;;7.50;99.90;;;;;;4793996;30;20478;-72
2023/11/26 11:50:16;;;;;;;16.50;12.20;;;7.50;99.90;;;;;;4799334;29;20191;-76
2023/11/26 11:52:43;;;;;;;11.83;10.60;;;7.50;99.90;;;;;;4789791;29;20421;-73
2023/11/26 11:55:30;;;;;;;10.10;8.70;;;7.50;99.90;;;;;;4804696;29;20471;-71
2023/11/26 11:57:57;;;;;;;14.40;11.20;;;7.50;99.90;;;;;;4780213;30;20421;-71
2023/11/26 12:00:22;;;;;;;11.57;9.67;;;7.40;99.90;;;;;;4805228;29;20993;-72
2023/11/26 12:02:49;;;;;;;21.10;11.50;;;7.40;99.90;;;;;;4791249;29;20568;-73
2023/11/26 12:05:21;;;;;;;12.90;11.00;;;7.30;99.90;;;;;;4813445;29;20255;-72
2023/11/26 12:07:47;;;;;;;16.00;12.57;;;7.20;99.90;;;;;;4811050;29;20441;-72
2023/11/26 12:10:25;;;;;;;18.10;12.77;;;7.10;99.90;;;;;;4811221;29;20428;-72
2023/11/26 12:13:06;;;;;;;15.93;12.00;;;7.00;99.90;;;;;;4792344;29;20190;-76
2023/11/26 12:15:32;;;;;;;15.87;12.10;;;7.00;99.90;;;;;;4795615;29;20442;-74
2023/11/26 12:17:59;;;;;;;13.50;11.30;;;6.90;99.90;;;;;;4853741;29;20922;-71
2023/11/26 12:20:26;;;;;;;14.47;11.70;;;6.90;99.90;;;;;;4839450;29;20407;-76
2023/11/26 12:22:53;;;;;;;15.20;12.00;;;6.80;99.90;;;;;;4837013;29;20468;-76
2023/11/26 12:25:21;;;;;;;14.10;12.00;;;6.80;99.90;;;;;;4850215;29;20536;-77
2023/11/26 12:28:07;;;;;;;14.00;11.43;;;6.80;99.90;;;;;;4840590;29;20434;-77
2023/11/26 12:30:38;;;;;;;12.07;9.77;;;6.80;99.90;;;;;;4844581;29;20476;-77
2023/11/26 12:33:05;;;;;;;15.43;10.90;;;6.80;99.90;;;;;;4835506;29;20415;-76
2023/11/26 12:35:33;;;;;;;19.10;11.00;;;6.80;99.90;;;;;;4829478;29;20478;-77
2023/11/26 12:38:02;;;;;;;14.97;11.17;;;6.90;99.90;;;;;;4848411;29;20453;-72
2023/11/26 12:40:29;;;;;;;22.50;15.17;;;6.90;99.90;;;;;;4823797;29;20529;-73
2023/11/26 12:42:56;;;;;;;13.30;11.13;;;7.00;99.90;;;;;;4857259;29;20437;-74
2023/11/26 12:45:22;;;;;;;15.40;11.50;;;7.00;99.90;;;;;;4845192;29;20443;-71